Red Bluff Municipal Airport Red Bluff US
ICAO: KRBL
IATA: RBL
Category: Medium
Scheduled Services: No

Elevation: 352 ft
TransAlt. 18000 ft.

Airport Communications:
ASOS:120.775
OAKLAND CNTR:132.2
RANCHO RDO:122.4
CTAF/UNICOM:123

KRBL Zoom In..

If you have problems with the map follow the link
https://www.worldairports.se/pages/airport.php?
ICAO=KRBL

Runways:

(A) RW 15 length 5431 ft width 100 ft
---- / hdg 151

(B) RW 33 length 5431 ft width 100 ft
---- / hdg 331

Location; KRBL
Day. 16 / Time. 02.54 Zulu
* Altimeter: 30.27
* Temperature: 06° c. 42.8°f.
* Wind from: 300° Speed 04 kn.
Dewpoint: 03° c.
Visibility: 10 Statute Miles.
Clouds: Clear (automated report).

KRBL 160254Z AUTO 30004KT 10SM CLR 06/03 A3027 RMK AO2 SLP252 T00560033 51013 $


Wind From 300°
Speed 04 kn.

 
 
jpsmedia worldairports.se 2019   terms of use